Terminal Aerodrome Forecast
Issued by NWS

Home | Current Version | Previous Version | Text Only | Print | Product List | Glossary On
Versions: 1 2 3 4 5 6 7 8 9 10 11 12 13 14 15 16 17 18 19 20 21 22 23 24
000
FTUS41 KGYX 272208 AAC
TAFLEB
TAF AMD
KLEB 272208Z 2722/2818 35014G24KT 3SM -SN SCT015 BKN025
      TEMPO 2722/2724 1SM -SN BLSN OVC015
     FM280000 33012G20KT P6SM -SN OVC015
     FM280900 32011KT P6SM OVC050=

USA.gov is the U.S. government's official web portal to all federal, state and local government web resources and services.